FKKN

N'Gaoundéré Airport

N'Gaoundéré, Cameroon
METAR FKKN 151700Z 32002KT CAVOK 25/13 Q1015
Observed Flight Rules
Dec-15 @ 17:00 UTC (3 hours ago) Visual Flight Rules
Wind Visibility Clouds
320° at 2 knots 10,000+ meters
  • Clear skies
Temperatures Readings
Current 25°C / 77°F
Dewpoint 13°C / 55°F
Humidity 47%
Altimeter 29.97" Hg
Pressure 1015 hPa
Elevation 1104
METAR FKKN 151700Z 32002KT CAVOK 25/13 Q1015
Observed Flight Rules
Dec-15 @ 17:00 UTC
(3 hours ago)
VFR
Wind Visibility
320° at 2 knots 10,000+ meters
Clouds
  • Clear skies
Temperature Dewpoint
25°C / 77°F 13°C / 55°F
Humidity Altimeter Pressure
47% 29.97" Hg 1015 hPa